^^
MeteoGriva-Weather Station Historical Data
Daily Summary for August 25, 2020 Units:  Both    English   Metric
Daily Weekly Monthly Yearly Custom
  High: Low: Average:
Temperature: 53.1 °F /  11.7 °C 36.3 °F /  2.4 °C 43.9 °F /  6.6 °C
Dew Point: 40.8 °F /  4.9 °C 30 °F /  -1.1 °C 34.9 °F /  1.6 °C
Humidity: 83% 60.1% 71%
Wind Speed: 3.1mph /  5km/h - 0.2mph /  0.4km/h
Wind Gust: 10.1mph /  16.3km/h - -
Wind- - SSE
Pressure: 30.4 in /  1028.8 hPa 30.2 in /  1023.4 hPa -
Precipitation: 0 in /  0.0 mm    
Historical Graphs
 
 
Tabular Data for August 25, 2020
Time Temperature Dew Point Pressure Wind Wind Speed Wind Gust Humidity Rainfall Rate (Hourly) solar
00:04 39 °F /  3.9 °C 33.1 °F /  0.6 °C 30.4in /  1028.8hPa Calm     79.2% 0in /  0.0mm 0 W/m2
00:09 39.4 °F /  4.1 °C 33.4 °F /  0.8 °C 30.4in /  1028.8hPa Calm     79% 0in /  0.0mm 0 W/m2
00:14 39.4 °F /  4.1 °C 33.6 °F /  0.9 °C 30.4in /  1028.8hPa Calm     79.4% 0in /  0.0mm 0 W/m2
00:19 39.4 °F /  4.1 °C 33.8 °F /  1 °C 30.4in /  1028.5hPa Calm     80.7% 0in /  0.0mm 0 W/m2
00:24 39 °F /  3.9 °C 34 °F /  1.1 °C 30.4in /  1028.5hPa Calm     81.7% 0in /  0.0mm 0 W/m2
00:29 39.2 °F /  4 °C 33.6 °F /  0.9 °C 30.4in /  1028.5hPa Calm     80.1% 0in /  0.0mm 0 W/m2
00:34 39.2 °F /  4 °C 33.6 °F /  0.9 °C 30.4in /  1028.5hPa Calm     80% 0in /  0.0mm 0 W/m2
00:39 39.2 °F /  4 °C 33.6 °F /  0.9 °C 30.4in /  1028.5hPa Calm     80% 0in /  0.0mm 0 W/m2
00:44 39 °F /  3.9 °C 33.6 °F /  0.9 °C 30.4in /  1028.5hPa Calm     81% 0in /  0.0mm 0 W/m2
00:49 38.5 °F /  3.6 °C 33.3 °F /  0.7 °C 30.4in /  1028.5hPa Calm     81.3% 0in /  0.0mm 0 W/m2
00:54 38.3 °F /  3.5 °C 33.3 °F /  0.7 °C 30.4in /  1028.5hPa Calm     82% 0in /  0.0mm 0 W/m2
00:59 38.3 °F /  3.5 °C 33.3 °F /  0.7 °C 30.4in /  1028.5hPa Calm     81.8% 0in /  0.0mm 0 W/m2
01:04 38.3 °F /  3.5 °C 32.7 °F /  0.4 °C 30.4in /  1028.5hPa Calm     80.1% 0in /  0.0mm 0 W/m2
01:09 38.3 °F /  3.5 °C 32.7 °F /  0.4 °C 30.4in /  1028.1hPa Calm     80.7% 0in /  0.0mm 0 W/m2
01:14 38.1 °F /  3.4 °C 32.7 °F /  0.4 °C 30.4in /  1028.1hPa Calm     81% 0in /  0.0mm 0 W/m2
01:19 38.1 °F /  3.4 °C 32.7 °F /  0.4 °C 30.4in /  1028.1hPa Calm     81% 0in /  0.0mm 0 W/m2
01:24 38.1 °F /  3.4 °C 32.7 °F /  0.4 °C 30.4in /  1028.1hPa Calm     80.8% 0in /  0.0mm 0 W/m2
01:29 38.8 °F /  3.8 °C 33.3 °F /  0.7 °C 30.4in /  1027.8hPa Calm     79.8% 0in /  0.0mm 0 W/m2
01:34 39.2 °F /  4 °C 33.3 °F /  0.7 °C 30.4in /  1027.8hPa Calm     79.1% 0in /  0.0mm 0 W/m2
01:39 39.2 °F /  4 °C 33.4 °F /  0.8 °C 30.4in /  1027.8hPa Calm     79.6% 0in /  0.0mm 0 W/m2
01:44 39 °F /  3.9 °C 33.6 °F /  0.9 °C 30.4in /  1027.8hPa Calm     81.2% 0in /  0.0mm 0 W/m2
01:49 38.5 °F /  3.6 °C 33.4 °F /  0.8 °C 30.4in /  1027.8hPa Calm     82% 0in /  0.0mm 0 W/m2
01:54 38.1 °F /  3.4 °C 32.7 °F /  0.4 °C 30.4in /  1027.8hPa Calm     81.1% 0in /  0.0mm 0 W/m2
01:59 38.1 °F /  3.4 °C 32.5 °F /  0.3 °C 30.4in /  1027.8hPa Calm     80.6% 0in /  0.0mm 0 W/m2
02:04 38.1 °F /  3.4 °C 32.7 °F /  0.4 °C 30.3in /  1027.4hPa Calm     81% 0in /  0.0mm 0 W/m2
02:09 37.9 °F /  3.3 °C 32.7 °F /  0.4 °C 30.3in /  1027.4hPa Calm     81.2% 0in /  0.0mm 0 W/m2
02:14 37.8 °F /  3.2 °C 32.7 °F /  0.4 °C 30.3in /  1027.4hPa Calm     82% 0in /  0.0mm 0 W/m2
02:19 37.8 °F /  3.2 °C 32.5 °F /  0.3 °C 30.3in /  1027.4hPa Calm     81% 0in /  0.0mm 0 W/m2
02:24 37.8 °F /  3.2 °C 32.5 °F /  0.3 °C 30.3in /  1027.4hPa Calm     81% 0in /  0.0mm 0 W/m2
02:29 37.9 °F /  3.3 °C 32.4 °F /  0.2 °C 30.3in /  1027.4hPa Calm     80% 0in /  0.0mm 0 W/m2
02:34 37.9 °F /  3.3 °C 32.5 °F /  0.3 °C 30.3in /  1027.4hPa Calm     80.6% 0in /  0.0mm 0 W/m2
02:39 37.9 °F /  3.3 °C 32.7 °F /  0.4 °C 30.3in /  1027.1hPa Calm     81% 0in /  0.0mm 0 W/m2
02:44 37.9 °F /  3.3 °C 32.7 °F /  0.4 °C 30.3in /  1027.1hPa Calm     81% 0in /  0.0mm 0 W/m2
02:49 37.8 °F /  3.2 °C 32.4 °F /  0.2 °C 30.3in /  1027.1hPa Calm     81% 0in /  0.0mm 0 W/m2
02:54 37.6 °F /  3.1 °C 32 °F /  0 °C 30.3in /  1027.1hPa Calm     80% 0in /  0.0mm 0 W/m2
02:59 37.6 °F /  3.1 °C 31.5 °F /  -0.3 °C 30.3in /  1027.1hPa Calm     78.6% 0in /  0.0mm 0 W/m2
03:04 37.8 °F /  3.2 °C 32.2 °F /  0.1 °C 30.3in /  1027.1hPa Calm     80% 0in /  0.0mm 0 W/m2
03:09 37.4 °F /  3 °C 32.2 °F /  0.1 °C 30.3in /  1027.1hPa Calm     81.7% 0in /  0.0mm 0 W/m2
03:14 37 °F /  2.8 °C 32 °F /  0 °C 30.3in /  1027.1hPa Calm     81.6% 0in /  0.0mm 0 W/m2
03:19 37 °F /  2.8 °C 32 °F /  0 °C 30.3in /  1027.4hPa Calm     82% 0in /  0.0mm 0 W/m2
03:24 37 °F /  2.8 °C 31.8 °F /  -0.1 °C 30.3in /  1027.4hPa Calm     81.1% 0in /  0.0mm 0 W/m2
03:29 36.9 °F /  2.7 °C 31.8 °F /  -0.1 °C 30.3in /  1027.1hPa Calm     81.6% 0in /  0.0mm 0 W/m2
03:34 36.7 °F /  2.6 °C 32 °F /  0 °C 30.3in /  1027.4hPa Calm     82.8% 0in /  0.0mm 0 W/m2
03:39 36.7 °F /  2.6 °C 31.6 °F /  -0.2 °C 30.3in /  1027.1hPa Calm     82.1% 0in /  0.0mm 0 W/m2
03:44 36.7 °F /  2.6 °C 32 °F /  0 °C 30.3in /  1027.1hPa Calm     83% 0in /  0.0mm 0 W/m2
03:49 36.5 °F /  2.5 °C 31.5 °F /  -0.3 °C 30.3in /  1026.8hPa Calm     82% 0in /  0.0mm 0 W/m2
03:54 36.7 °F /  2.6 °C 31.5 °F /  -0.3 °C 30.3in /  1026.8hPa Calm     81% 0in /  0.0mm 0 W/m2
03:59 36.7 °F /  2.6 °C 31.5 °F /  -0.3 °C 30.3in /  1026.8hPa Calm     81.3% 0in /  0.0mm 0 W/m2
04:04 36.7 °F /  2.6 °C 31.5 °F /  -0.3 °C 30.3in /  1026.4hPa Calm     81% 0in /  0.0mm 0 W/m2
04:09 36.7 °F /  2.6 °C 31.8 °F /  -0.1 °C 30.3in /  1026.4hPa Calm     82.3% 0in /  0.0mm 0 W/m2
04:14 36.3 °F /  2.4 °C 31.6 °F /  -0.2 °C 30.3in /  1026.4hPa Calm     82.8% 0in /  0.0mm 0 W/m2
04:19 36.5 °F /  2.5 °C 31.1 °F /  -0.5 °C 30.3in /  1026.4hPa Calm     80.3% 0in /  0.0mm 0 W/m2
04:24 36.7 °F /  2.6 °C 31.1 °F /  -0.5 °C 30.3in /  1026.4hPa Calm     79.9% 0in /  0.0mm 0 W/m2
04:29 37 °F /  2.8 °C 31.3 °F /  -0.4 °C 30.3in /  1026.4hPa Calm     79.7% 0in /  0.0mm 0 W/m2
04:34 37.4 °F /  3 °C 31.8 °F /  -0.1 °C 30.3in /  1026.1hPa Calm     80% 0in /  0.0mm 0 W/m2
04:39 37.2 °F /  2.9 °C 31.8 °F /  -0.1 °C 30.3in /  1026.4hPa Calm     80.3% 0in /  0.0mm 0 W/m2
04:44 37.2 °F /  2.9 °C 31.8 °F /  -0.1 °C 30.3in /  1026.4hPa Calm     80.4% 0in /  0.0mm 0 W/m2
04:49 37.2 °F /  2.9 °C 31.3 °F /  -0.4 °C 30.3in /  1026.4hPa Calm     79.1% 0in /  0.0mm 0 W/m2
04:54 37 °F /  2.8 °C 31.6 °F /  -0.2 °C 30.3in /  1026.4hPa Calm     80.2% 0in /  0.0mm 0 W/m2
04:59 37 °F /  2.8 °C 31.6 °F /  -0.2 °C 30.3in /  1026.4hPa Calm     80.2% 0in /  0.0mm 0 W/m2
05:04 36.9 °F /  2.7 °C 31.5 °F /  -0.3 °C 30.3in /  1026.4hPa Calm     80.6% 0in /  0.0mm 0 W/m2
05:09 36.9 °F /  2.7 °C 31.3 °F /  -0.4 °C 30.3in /  1026.4hPa Calm     79.9% 0in /  0.0mm 0 W/m2
05:14 36.7 °F /  2.6 °C 30.6 °F /  -0.8 °C 30.3in /  1026.4hPa Calm     79% 0in /  0.0mm 0 W/m2
05:19 36.5 °F /  2.5 °C 30.6 °F /  -0.8 °C 30.3in /  1026.4hPa Calm     79% 0in /  0.0mm 0 W/m2
05:24 36.5 °F /  2.5 °C 30.6 °F /  -0.8 °C 30.3in /  1026.4hPa Calm     79% 0in /  0.0mm 0 W/m2
05:29 36.5 °F /  2.5 °C 30.6 °F /  -0.8 °C 30.3in /  1026.4hPa Calm     79% 0in /  0.0mm 0 W/m2
05:34 36.3 °F /  2.4 °C 30.2 °F /  -1 °C 30.3in /  1026.4hPa Calm     78.4% 0in /  0.0mm 0 W/m2
05:39 36.3 °F /  2.4 °C 30 °F /  -1.1 °C 30.3in /  1026.8hPa Calm     77.3% 0in /  0.0mm 0 W/m2
05:44 36.5 °F /  2.5 °C 30.2 °F /  -1 °C 30.3in /  1026.4hPa Calm     77.3% 0in /  0.0mm 0 W/m2
05:49 36.9 °F /  2.7 °C 30.6 °F /  -0.8 °C 30.3in /  1026.4hPa Calm     77.8% 0in /  0.0mm 0 W/m2
05:54 37.4 °F /  3 °C 31.5 °F /  -0.3 °C 30.3in /  1026.4hPa Calm     78.8% 0in /  0.0mm 0 W/m2
05:59 37.4 °F /  3 °C 31.6 °F /  -0.2 °C 30.3in /  1026.8hPa Calm     79.4% 0in /  0.0mm 0 W/m2
06:04 37.2 °F /  2.9 °C 31.5 °F /  -0.3 °C 30.3in /  1026.4hPa Calm     79.5% 0in /  0.0mm 0 W/m2
06:09 37.2 °F /  2.9 °C 31.1 °F /  -0.5 °C 30.3in /  1026.4hPa Calm     78.4% 0in /  0.0mm 0 W/m2
06:14 37.4 °F /  3 °C 31.5 °F /  -0.3 °C 30.3in /  1026.4hPa Calm     78.8% 0in /  0.0mm 0 W/m2
06:19 37.4 °F /  3 °C 31.3 °F /  -0.4 °C 30.3in /  1026.4hPa Calm     78.7% 0in /  0.0mm 0 W/m2
06:24 37.2 °F /  2.9 °C 31.3 °F /  -0.4 °C 30.3in /  1026.8hPa Calm     78.8% 0in /  0.0mm 0 W/m2
06:29 37.2 °F /  2.9 °C 30.9 °F /  -0.6 °C 30.3in /  1026.4hPa Calm     78% 0in /  0.0mm 0 W/m2
06:34 37.8 °F /  3.2 °C 31.5 °F /  -0.3 °C 30.3in /  1026.8hPa Calm     77.7% 0in /  0.0mm 0 W/m2
06:39 37.8 °F /  3.2 °C 31.5 °F /  -0.3 °C 30.3in /  1026.4hPa Calm     77.6% 0in /  0.0mm 0 W/m2
06:44 37.8 °F /  3.2 °C 31.1 °F /  -0.5 °C 30.3in /  1026.4hPa Calm     76.6% 0in /  0.0mm 0 W/m2
06:49 37.8 °F /  3.2 °C 30.9 °F /  -0.6 °C 30.3in /  1026.4hPa Calm     76% 0in /  0.0mm 0 W/m2
06:54 37.6 °F /  3.1 °C 31.1 °F /  -0.5 °C 30.3in /  1026.4hPa Calm     77.4% 0in /  0.0mm 0 W/m2
06:59 37.6 °F /  3.1 °C 31.3 °F /  -0.4 °C 30.3in /  1026.4hPa Calm     78% 0in /  0.0mm 0 W/m2
07:04 37.6 °F /  3.1 °C 31.3 °F /  -0.4 °C 30.3in /  1026.8hPa Calm     78% 0in /  0.0mm 0 W/m2
07:09 37.6 °F /  3.1 °C 31.3 °F /  -0.4 °C 30.3in /  1026.8hPa Calm     77.3% 0in /  0.0mm 0 W/m2
07:14 37.9 °F /  3.3 °C 31.3 °F /  -0.4 °C 30.3in /  1026.4hPa Calm     76.7% 0in /  0.0mm 0 W/m2
07:19 37.9 °F /  3.3 °C 31.3 °F /  -0.4 °C 30.3in /  1026.8hPa Calm     76.6% 0in /  0.0mm 0 W/m2
07:24 37.9 °F /  3.3 °C 31.5 °F /  -0.3 °C 30.3in /  1026.8hPa Calm     77% 0in /  0.0mm 0 W/m2
07:29 38.1 °F /  3.4 °C 31.6 °F /  -0.2 °C 30.3in /  1026.8hPa Calm     76.9% 0in /  0.0mm 0 W/m2
07:34 38.7 °F /  3.7 °C 31.8 °F /  -0.1 °C 30.3in /  1026.8hPa Calm     76% 0in /  0.0mm 0 W/m2
07:39 38.7 °F /  3.7 °C 31.8 °F /  -0.1 °C 30.3in /  1026.8hPa Calm     76% 0in /  0.0mm 0 W/m2
07:44 38.7 °F /  3.7 °C 31.5 °F /  -0.3 °C 30.3in /  1027.1hPa Calm     75% 0in /  0.0mm 0 W/m2
07:49 38.7 °F /  3.7 °C 31.6 °F /  -0.2 °C 30.3in /  1027.1hPa Calm     75.4% 0in /  0.0mm 0 W/m2
07:54 38.5 °F /  3.6 °C 31.6 °F /  -0.2 °C 30.3in /  1027.1hPa Calm     76.3% 0in /  0.0mm 3 W/m2
07:59 38.5 °F /  3.6 °C 31.6 °F /  -0.2 °C 30.3in /  1027.4hPa Calm     76.3% 0in /  0.0mm 7 W/m2
08:04 38.5 °F /  3.6 °C 31.6 °F /  -0.2 °C 30.3in /  1027.4hPa Calm     76.2% 0in /  0.0mm 11 W/m2
08:09 38.7 °F /  3.7 °C 31.5 °F /  -0.3 °C 30.3in /  1027.4hPa Calm     75.1% 0in /  0.0mm 17 W/m2
08:14 39.7 °F /  4.3 °C 32.2 °F /  0.1 °C 30.3in /  1027.1hPa Calm     74% 0in /  0.0mm 21 W/m2
08:19 39.7 °F /  4.3 °C 32.5 °F /  0.3 °C 30.3in /  1027.4hPa Calm     75.3% 0in /  0.0mm 26 W/m2
08:24 39.7 °F /  4.3 °C 32.5 °F /  0.3 °C 30.3in /  1027.1hPa Calm     75.6% 0in /  0.0mm 31 W/m2
08:29 39.7 °F /  4.3 °C 32.2 °F /  0.1 °C 30.3in /  1027.1hPa Calm     73.8% 0in /  0.0mm 36 W/m2
08:34 41.4 °F /  5.2 °C 33.3 °F /  0.7 °C 30.3in /  1027.1hPa Calm     72.4% 0in /  0.0mm 40 W/m2
08:39 41.4 °F /  5.2 °C 32.9 °F /  0.5 °C 30.3in /  1027.1hPa Calm     71.4% 0in /  0.0mm 46 W/m2
08:44 41.5 °F /  5.3 °C 32.5 °F /  0.3 °C 30.3in /  1027.1hPa Calm     70.3% 0in /  0.0mm 50 W/m2
08:49 42.1 °F /  5.6 °C 31.8 °F /  -0.1 °C 30.3in /  1027.4hPa Calm     66.8% 0in /  0.0mm 54 W/m2
08:54 45.3 °F /  7.4 °C 34.5 °F /  1.4 °C 30.3in /  1027.4hPa Calm     65.6% 0in /  0.0mm 59 W/m2
08:59 45.9 °F /  7.7 °C 34.2 °F /  1.2 °C 30.3in /  1027.4hPa Calm     63.2% 0in /  0.0mm 61 W/m2
09:04 45.9 °F /  7.7 °C 36.3 °F /  2.4 °C 30.3in /  1027.4hPa Calm     69% 0in /  0.0mm 65 W/m2
09:09 45.7 °F /  7.6 °C 36.1 °F /  2.3 °C 30.3in /  1027.4hPa Calm     69.1% 0in /  0.0mm 69 W/m2
09:14 45.7 °F /  7.6 °C 35.4 °F /  1.9 °C 30.3in /  1027.4hPa Calm     66.9% 0in /  0.0mm 71 W/m2
09:19 45.7 °F /  7.6 °C 35.2 °F /  1.8 °C 30.3in /  1027.4hPa Calm     66.4% 0in /  0.0mm 74 W/m2
09:24 45.9 °F /  7.7 °C 34.9 °F /  1.6 °C 30.3in /  1027.4hPa Calm     65.6% 0in /  0.0mm 76 W/m2
09:29 45.7 °F /  7.6 °C 36 °F /  2.2 °C 30.3in /  1027.4hPa Calm     68.4% 0in /  0.0mm 78 W/m2
09:34 44.2 °F /  6.8 °C 34.5 °F /  1.4 °C 30.3in /  1027.4hPa Calm     68.6% 0in /  0.0mm 80 W/m2
09:39 44.2 °F /  6.8 °C 33.4 °F /  0.8 °C 30.3in /  1027.4hPa Calm     65.6% 0in /  0.0mm 82 W/m2
09:44 45 °F /  7.2 °C 33.8 °F /  1 °C 30.3in /  1027.4hPa Calm     64.9% 0in /  0.0mm 83 W/m2
09:49 45.3 °F /  7.4 °C 34.7 °F /  1.5 °C 30.3in /  1027.4hPa Calm     65.8% 0in /  0.0mm 84 W/m2
09:54 46.6 °F /  8.1 °C 35.8 °F /  2.1 °C 30.3in /  1027.4hPa Calm     65.6% 0in /  0.0mm 85 W/m2
09:59 46.9 °F /  8.3 °C 35.6 °F /  2 °C 30.3in /  1027.4hPa Calm     64.3% 0in /  0.0mm 86 W/m2
10:04 47.1 °F /  8.4 °C 35.2 °F /  1.8 °C 30.3in /  1027.4hPa Calm     63% 0in /  0.0mm 87 W/m2
10:09 47.3 °F /  8.5 °C 35.4 °F /  1.9 °C 30.3in /  1027.4hPa Calm     63% 0in /  0.0mm 88 W/m2
10:14 47.5 °F /  8.6 °C 36 °F /  2.2 °C 30.3in /  1027.4hPa Calm     64% 0in /  0.0mm 88 W/m2
10:19 47.3 °F /  8.5 °C 36.1 °F /  2.3 °C 30.3in /  1027.1hPa Calm     64.6% 0in /  0.0mm 89 W/m2
10:24 47.5 °F /  8.6 °C 36.1 °F /  2.3 °C 30.3in /  1027.1hPa Calm     64.4% 0in /  0.0mm 90 W/m2
10:29 47.5 °F /  8.6 °C 36 °F /  2.2 °C 30.3in /  1027.1hPa Calm     64% 0in /  0.0mm 91 W/m2
10:34 48.4 °F /  9.1 °C 36.9 °F /  2.7 °C 30.3in /  1027.4hPa SE 0.2mph /  0.3km/h 2.5mph /  4km/h 64.4% 0in /  0.0mm 91 W/m2
10:39 48.6 °F /  9.2 °C 37 °F /  2.8 °C 30.3in /  1027.4hPa Calm     64.3% 0in /  0.0mm 93 W/m2
10:44 48.6 °F /  9.2 °C 36.9 °F /  2.7 °C 30.3in /  1027.4hPa Calm   2.5mph /  4km/h 64% 0in /  0.0mm 94 W/m2
10:49 48.6 °F /  9.2 °C 36.9 °F /  2.7 °C 30.3in /  1027.4hPa SE 0.6mph /  1km/h 4.9mph /  7.9km/h 64.1% 0in /  0.0mm 96 W/m2
10:54 48 °F /  8.9 °C 36.7 °F /  2.6 °C 30.3in /  1027.1hPa SSE 0.9mph /  1.4km/h 4.9mph /  7.9km/h 64.4% 0in /  0.0mm 98 W/m2
10:59 48 °F /  8.9 °C 36.5 °F /  2.5 °C 30.3in /  1027.1hPa South 1.1mph /  1.7km/h 4.9mph /  7.9km/h 64.1% 0in /  0.0mm 100 W/m2
11:04 48 °F /  8.9 °C 37 °F /  2.8 °C 30.3in /  1027.1hPa SSE 1.7mph /  2.7km/h 7.6mph /  12.2km/h 65.6% 0in /  0.0mm 102 W/m2
11:09 48 °F /  8.9 °C 37 °F /  2.8 °C 30.3in /  1027.1hPa SSE 1.7mph /  2.7km/h 7.6mph /  12.2km/h 65.7% 0in /  0.0mm 105 W/m2
11:14 48.2 °F /  9 °C 37 °F /  2.8 °C 30.3in /  1026.8hPa SSE 1.7mph /  2.7km/h 7.6mph /  12.2km/h 65.2% 0in /  0.0mm 108 W/m2
11:19 48.2 °F /  9 °C 37.2 °F /  2.9 °C 30.3in /  1027.1hPa South 2.1mph /  3.4km/h 7.6mph /  12.2km/h 65.3% 0in /  0.0mm 111 W/m2
11:24 48.2 °F /  9 °C 36.7 °F /  2.6 °C 30.3in /  1027.1hPa SSE 2mph /  3.2km/h 7.6mph /  12.2km/h 64.1% 0in /  0.0mm 115 W/m2
11:29 48.2 °F /  9 °C 36.1 °F /  2.3 °C 30.3in /  1026.8hPa SSE 1.2mph /  1.9km/h 7.6mph /  12.2km/h 63% 0in /  0.0mm 119 W/m2
11:34 48.6 °F /  9.2 °C 36.5 °F /  2.5 °C 30.3in /  1026.8hPa SSE 2.4mph /  3.9km/h 7.6mph /  12.2km/h 63.1% 0in /  0.0mm 123 W/m2
11:39 48.7 °F /  9.3 °C 36.9 °F /  2.7 °C 30.3in /  1026.8hPa SSE 2.6mph /  4.2km/h 7.6mph /  12.2km/h 63.4% 0in /  0.0mm 127 W/m2
11:44 48.7 °F /  9.3 °C 36.7 °F /  2.6 °C 30.3in /  1026.8hPa SSE 2.5mph /  4.1km/h 7.6mph /  12.2km/h 62.8% 0in /  0.0mm 132 W/m2
11:49 48.7 °F /  9.3 °C 36.9 °F /  2.7 °C 30.3in /  1026.8hPa SSE 1.7mph /  2.8km/h 7.6mph /  12.2km/h 63.7% 0in /  0.0mm 134 W/m2
11:54 48.6 °F /  9.2 °C 36.9 °F /  2.7 °C 30.3in /  1026.8hPa SSE 1.9mph /  3.1km/h 7.6mph /  12.2km/h 63.8% 0in /  0.0mm 132 W/m2
11:59 48.6 °F /  9.2 °C 36.5 °F /  2.5 °C 30.3in /  1026.4hPa South 3.1mph /  5km/h 7.6mph /  12.2km/h 63% 0in /  0.0mm 107 W/m2
12:04 48.6 °F /  9.2 °C 36.5 °F /  2.5 °C 30.3in /  1026.4hPa SSE 2.2mph /  3.6km/h 7.6mph /  12.2km/h 63% 0in /  0.0mm 93 W/m2
12:09 48.7 °F /  9.3 °C 36.5 °F /  2.5 °C 30.3in /  1026.1hPa South 2.1mph /  3.4km/h 10.1mph /  16.3km/h 62.9% 0in /  0.0mm 93 W/m2
12:14 48.9 °F /  9.4 °C 37 °F /  2.8 °C 30.3in /  1026.1hPa SSE 2.5mph /  4km/h 7.6mph /  12.2km/h 63.4% 0in /  0.0mm 93 W/m2
12:19 49.1 °F /  9.5 °C 37 °F /  2.8 °C 30.3in /  1026.1hPa SSE 2.1mph /  3.4km/h 7.6mph /  12.2km/h 63.1% 0in /  0.0mm 101 W/m2
12:24 49.1 °F /  9.5 °C 37.2 °F /  2.9 °C 30.3in /  1025.7hPa SSE 3.1mph /  5km/h 7.6mph /  12.2km/h 63.4% 0in /  0.0mm 156 W/m2
12:29 49.1 °F /  9.5 °C 37.2 °F /  2.9 °C 30.3in /  1025.7hPa SSE 2.4mph /  3.8km/h 7.6mph /  12.2km/h 63.7% 0in /  0.0mm 182 W/m2
12:34 49.1 °F /  9.5 °C 37.4 °F /  3 °C 30.3in /  1026.1hPa SSE 2.5mph /  4.1km/h 7.6mph /  12.2km/h 64% 0in /  0.0mm 188 W/m2
12:39 49.1 °F /  9.5 °C 37.6 °F /  3.1 °C 30.3in /  1025.7hPa SSE 1.9mph /  3.1km/h 10.1mph /  16.3km/h 64.4% 0in /  0.0mm 201 W/m2
12:44 49.1 °F /  9.5 °C 37.4 °F /  3 °C 30.3in /  1025.7hPa SE 2mph /  3.2km/h 10.1mph /  16.3km/h 64.1% 0in /  0.0mm 209 W/m2
12:49 49.1 °F /  9.5 °C 37.6 °F /  3.1 °C 30.3in /  1025.7hPa SSE 1.1mph /  1.8km/h 10.1mph /  16.3km/h 64.3% 0in /  0.0mm 221 W/m2
12:54 49.5 °F /  9.7 °C 37.8 °F /  3.2 °C 30.3in /  1025.4hPa SSE 0.6mph /  0.9km/h 4.9mph /  7.9km/h 63.8% 0in /  0.0mm 232 W/m2
12:59 49.8 °F /  9.9 °C 37.9 °F /  3.3 °C 30.3in /  1025.4hPa SSE 0.6mph /  0.9km/h 7.6mph /  12.2km/h 63.2% 0in /  0.0mm 248 W/m2
13:04 49.8 °F /  9.9 °C 37.9 °F /  3.3 °C 30.3in /  1025.1hPa SE 0.3mph /  0.5km/h 7.6mph /  12.2km/h 63.6% 0in /  0.0mm 261 W/m2
13:09 50 °F /  10 °C 37.9 °F /  3.3 °C 30.3in /  1025.4hPa South 0.6mph /  0.9km/h 4.9mph /  7.9km/h 62.8% 0in /  0.0mm 273 W/m2
13:14 50.5 °F /  10.3 °C 37.9 °F /  3.3 °C 30.3in /  1025.1hPa South 0.8mph /  1.3km/h 4.9mph /  7.9km/h 62% 0in /  0.0mm 283 W/m2
13:19 50.9 °F /  10.5 °C 37.9 °F /  3.3 °C 30.3in /  1025.1hPa SE 1.4mph /  2.2km/h 7.6mph /  12.2km/h 61.1% 0in /  0.0mm 290 W/m2
13:24 50.9 °F /  10.5 °C 38.1 °F /  3.4 °C 30.3in /  1025.1hPa SE 0.8mph /  1.3km/h 4.9mph /  7.9km/h 61.4% 0in /  0.0mm 293 W/m2
13:29 50.9 °F /  10.5 °C 38.3 °F /  3.5 °C 30.3in /  1024.7hPa SSE 0.6mph /  0.9km/h 4.9mph /  7.9km/h 61.8% 0in /  0.0mm 296 W/m2
13:34 50.7 °F /  10.4 °C 37.9 °F /  3.3 °C 30.3in /  1024.7hPa SSE 0.9mph /  1.4km/h 4.9mph /  7.9km/h 61.3% 0in /  0.0mm 300 W/m2
13:39 50.5 °F /  10.3 °C 37.8 °F /  3.2 °C 30.3in /  1024.7hPa Calm   4.9mph /  7.9km/h 61.3% 0in /  0.0mm 302 W/m2
13:44 50.5 °F /  10.3 °C 37.6 °F /  3.1 °C 30.3in /  1024.7hPa SSE 0.9mph /  1.4km/h 4.9mph /  7.9km/h 61.2% 0in /  0.0mm 308 W/m2
13:49 50.5 °F /  10.3 °C 37.8 °F /  3.2 °C 30.3in /  1024.4hPa Calm   4.9mph /  7.9km/h 61.8% 0in /  0.0mm 308 W/m2
13:54 50.7 °F /  10.4 °C 37.9 °F /  3.3 °C 30.3in /  1024.4hPa Calm     61.3% 0in /  0.0mm 312 W/m2
13:59 51.1 °F /  10.6 °C 37.9 °F /  3.3 °C 30.3in /  1024.4hPa ENE 0.4mph /  0.6km/h 4.9mph /  7.9km/h 60.6% 0in /  0.0mm 312 W/m2
14:04 51.1 °F /  10.6 °C 38.1 °F /  3.4 °C 30.3in /  1024.4hPa NE 0.5mph /  0.8km/h 4.9mph /  7.9km/h 61.2% 0in /  0.0mm 311 W/m2
14:09 51.3 °F /  10.7 °C 37.8 °F /  3.2 °C 30.3in /  1024.4hPa Calm   4.9mph /  7.9km/h 60.1% 0in /  0.0mm 310 W/m2
14:14 51.3 °F /  10.7 °C 37.9 °F /  3.3 °C 30.2in /  1024.0hPa ESE 0.7mph /  1.1km/h 7.6mph /  12.2km/h 60.6% 0in /  0.0mm 308 W/m2
14:19 50.9 °F /  10.5 °C 37.8 °F /  3.2 °C 30.3in /  1024.4hPa SSE 0.7mph /  1.2km/h 4.9mph /  7.9km/h 60.9% 0in /  0.0mm 305 W/m2
14:24 51.1 °F /  10.6 °C 37.9 °F /  3.3 °C 30.2in /  1024.0hPa SE 0.1mph /  0.2km/h 4.9mph /  7.9km/h 60.3% 0in /  0.0mm 303 W/m2
14:29 51.4 °F /  10.8 °C 38.3 °F /  3.5 °C 30.2in /  1024.0hPa SSE 0.6mph /  0.9km/h 4.9mph /  7.9km/h 60.7% 0in /  0.0mm 301 W/m2
14:34 51.8 °F /  11 °C 38.8 °F /  3.8 °C 30.2in /  1024.0hPa SSE 1mph /  1.6km/h 7.6mph /  12.2km/h 61% 0in /  0.0mm 297 W/m2
14:39 52 °F /  11.1 °C 39.6 °F /  4.2 °C 30.2in /  1024.0hPa ESE 1.5mph /  2.4km/h 7.6mph /  12.2km/h 62.3% 0in /  0.0mm 290 W/m2
14:44 51.8 °F /  11 °C 39.2 °F /  4 °C 30.2in /  1024.0hPa SSE 1.3mph /  2.1km/h 7.6mph /  12.2km/h 62.1% 0in /  0.0mm 286 W/m2
14:49 51.8 °F /  11 °C 39.4 °F /  4.1 °C 30.2in /  1024.0hPa South 1.1mph /  1.8km/h 4.9mph /  7.9km/h 62.3% 0in /  0.0mm 283 W/m2
14:54 51.4 °F /  10.8 °C 39.2 °F /  4 °C 30.2in /  1024.0hPa SE 0.2mph /  0.4km/h 4.9mph /  7.9km/h 63% 0in /  0.0mm 278 W/m2
14:59 50.9 °F /  10.5 °C 38.7 °F /  3.7 °C 30.2in /  1024.0hPa Calm     62.7% 0in /  0.0mm 274 W/m2
15:04 51.1 °F /  10.6 °C 38.7 °F /  3.7 °C 30.2in /  1024.0hPa Calm     62.6% 0in /  0.0mm 269 W/m2
15:09 51.3 °F /  10.7 °C 39 °F /  3.9 °C 30.2in /  1024.0hPa Calm   2.5mph /  4km/h 63% 0in /  0.0mm 252 W/m2
15:14 51.8 °F /  11 °C 39.2 °F /  4 °C 30.2in /  1023.7hPa SE 0.1mph /  0.2km/h 2.5mph /  4km/h 62% 0in /  0.0mm 257 W/m2
15:19 52.5 °F /  11.4 °C 39.7 °F /  4.3 °C 30.2in /  1023.7hPa SE 0.2mph /  0.3km/h 7.6mph /  12.2km/h 61.8% 0in /  0.0mm 253 W/m2
15:24 52.5 °F /  11.4 °C 39.9 °F /  4.4 °C 30.2in /  1023.7hPa SSE 0.4mph /  0.7km/h 7.6mph /  12.2km/h 62% 0in /  0.0mm 242 W/m2
15:29 52.5 °F /  11.4 °C 40.3 °F /  4.6 °C 30.2in /  1023.4hPa SSE 0.2mph /  0.3km/h 2.5mph /  4km/h 62.8% 0in /  0.0mm 240 W/m2
15:34 52.7 °F /  11.5 °C 40.1 °F /  4.5 °C 30.2in /  1023.7hPa Calm   2.5mph /  4km/h 62.3% 0in /  0.0mm 231 W/m2
15:39 53.1 °F /  11.7 °C 40.5 °F /  4.7 °C 30.2in /  1023.7hPa South 0.4mph /  0.7km/h 4.9mph /  7.9km/h 62.1% 0in /  0.0mm 225 W/m2
15:44 52.9 °F /  11.6 °C 40.8 °F /  4.9 °C 30.2in /  1023.7hPa SSE 0.4mph /  0.6km/h 4.9mph /  7.9km/h 63.3% 0in /  0.0mm 219 W/m2
15:49 52.7 °F /  11.5 °C 40.5 °F /  4.7 °C 30.2in /  1023.7hPa South 0.1mph /  0.2km/h 4.9mph /  7.9km/h 63.1% 0in /  0.0mm 210 W/m2
15:54 52.5 °F /  11.4 °C 40.3 °F /  4.6 °C 30.2in /  1023.7hPa Calm   2.5mph /  4km/h 63.2% 0in /  0.0mm 189 W/m2
15:59 52 °F /  11.1 °C 40.1 °F /  4.5 °C 30.2in /  1023.7hPa Calm   2.5mph /  4km/h 63.9% 0in /  0.0mm 188 W/m2
16:04 52 °F /  11.1 °C 40.5 °F /  4.7 °C 30.2in /  1023.7hPa Calm   4.9mph /  7.9km/h 64.8% 0in /  0.0mm 174 W/m2
16:09 51.8 °F /  11 °C 40.8 °F /  4.9 °C 30.2in /  1023.7hPa South 0.2mph /  0.3km/h 4.9mph /  7.9km/h 66.2% 0in /  0.0mm 72 W/m2
16:14 50.9 °F /  10.5 °C 40.6 °F /  4.8 °C 30.2in /  1023.7hPa South 0.2mph /  0.4km/h 4.9mph /  7.9km/h 67.6% 0in /  0.0mm 66 W/m2
16:19 49.3 °F /  9.6 °C 39.2 °F /  4 °C 30.2in /  1023.4hPa SSE 0.4mph /  0.7km/h 4.9mph /  7.9km/h 68% 0in /  0.0mm 66 W/m2
16:24 49.3 °F /  9.6 °C 39.2 °F /  4 °C 30.2in /  1023.4hPa Calm   4.9mph /  7.9km/h 68% 0in /  0.0mm 58 W/m2
16:29 49.3 °F /  9.6 °C 39.6 °F /  4.2 °C 30.2in /  1023.4hPa South 0.4mph /  0.7km/h 4.9mph /  7.9km/h 68.8% 0in /  0.0mm 52 W/m2
16:34 49.1 °F /  9.5 °C 39.6 °F /  4.2 °C 30.2in /  1023.4hPa Calm   4.9mph /  7.9km/h 69.2% 0in /  0.0mm 53 W/m2
16:39 48.4 °F /  9.1 °C 39 °F /  3.9 °C 30.2in /  1023.7hPa Calm     69.9% 0in /  0.0mm 54 W/m2
16:44 48.4 °F /  9.1 °C 38.7 °F /  3.7 °C 30.2in /  1023.4hPa Calm     69.1% 0in /  0.0mm 49 W/m2
16:49 48.4 °F /  9.1 °C 38.8 °F /  3.8 °C 30.2in /  1023.4hPa Calm     69.7% 0in /  0.0mm 41 W/m2
16:54 48.4 °F /  9.1 °C 37.9 °F /  3.3 °C 30.2in /  1023.7hPa Calm     66.8% 0in /  0.0mm 36 W/m2
16:59 48.2 °F /  9 °C 38.3 °F /  3.5 °C 30.2in /  1023.7hPa Calm     68.7% 0in /  0.0mm 33 W/m2
17:04 48.2 °F /  9 °C 39.2 °F /  4 °C 30.2in /  1023.7hPa Calm     71% 0in /  0.0mm 30 W/m2
17:09 48 °F /  8.9 °C 39 °F /  3.9 °C 30.2in /  1023.7hPa Calm     71% 0in /  0.0mm 23 W/m2
17:14 47.8 °F /  8.8 °C 38.7 °F /  3.7 °C 30.2in /  1023.7hPa Calm     70.9% 0in /  0.0mm 20 W/m2
17:19 46.8 °F /  8.2 °C 37.6 °F /  3.1 °C 30.2in /  1023.4hPa Calm     70% 0in /  0.0mm 14 W/m2
17:24 46.8 °F /  8.2 °C 37.4 °F /  3 °C 30.2in /  1023.7hPa Calm     69.7% 0in /  0.0mm 10 W/m2
17:29 46.8 °F /  8.2 °C 36.7 °F /  2.6 °C 30.2in /  1023.7hPa Calm     67.8% 0in /  0.0mm 6 W/m2
17:34 46.8 °F /  8.2 °C 36 °F /  2.2 °C 30.2in /  1023.7hPa Calm     66% 0in /  0.0mm 3 W/m2
17:39 46.4 °F /  8 °C 36.3 °F /  2.4 °C 30.2in /  1023.7hPa Calm     67.7% 0in /  0.0mm 0 W/m2
17:44 46.4 °F /  8 °C 36.7 °F /  2.6 °C 30.2in /  1023.7hPa Calm     68.6% 0in /  0.0mm 0 W/m2
17:49 46.4 °F /  8 °C 36.9 °F /  2.7 °C 30.2in /  1023.7hPa Calm     69% 0in /  0.0mm 0 W/m2
17:54 46.4 °F /  8 °C 36.5 °F /  2.5 °C 30.2in /  1023.7hPa Calm     68% 0in /  0.0mm 0 W/m2
17:59 46.4 °F /  8 °C 35.8 °F /  2.1 °C 30.2in /  1023.7hPa Calm     66.7% 0in /  0.0mm 0 W/m2
18:04 46.2 °F /  7.9 °C 35.1 °F /  1.7 °C 30.2in /  1023.7hPa Calm     64.8% 0in /  0.0mm 0 W/m2
18:09 46.4 °F /  8 °C 34.5 °F /  1.4 °C 30.2in /  1023.7hPa Calm     63% 0in /  0.0mm 0 W/m2
18:14 46.4 °F /  8 °C 34.2 °F /  1.2 °C 30.2in /  1023.7hPa Calm     62% 0in /  0.0mm 0 W/m2
18:19 46.9 °F /  8.3 °C 34.7 °F /  1.5 °C 30.2in /  1023.7hPa Calm     62.4% 0in /  0.0mm 0 W/m2
18:24 46.8 °F /  8.2 °C 35.1 °F /  1.7 °C 30.2in /  1023.7hPa Calm     63.8% 0in /  0.0mm 0 W/m2
18:29 46.8 °F /  8.2 °C 34.9 °F /  1.6 °C 30.2in /  1023.7hPa Calm     63.2% 0in /  0.0mm 0 W/m2
18:34 46.6 °F /  8.1 °C 34.7 °F /  1.5 °C 30.2in /  1023.7hPa Calm     62.9% 0in /  0.0mm 0 W/m2
18:39 46 °F /  7.8 °C 34.3 °F /  1.3 °C 30.2in /  1023.7hPa Calm     63.3% 0in /  0.0mm 0 W/m2
18:44 46 °F /  7.8 °C 34.7 °F /  1.5 °C 30.2in /  1023.7hPa Calm     64.7% 0in /  0.0mm 0 W/m2
18:49 46 °F /  7.8 °C 35.1 °F /  1.7 °C 30.2in /  1024.0hPa Calm     65.8% 0in /  0.0mm 0 W/m2
18:54 46 °F /  7.8 °C 34.9 °F /  1.6 °C 30.2in /  1024.0hPa Calm     64.8% 0in /  0.0mm 0 W/m2
18:59 46.4 °F /  8 °C 34.2 °F /  1.2 °C 30.2in /  1024.0hPa Calm     62.1% 0in /  0.0mm 0 W/m2
19:04 46.4 °F /  8 °C 34.7 °F /  1.5 °C 30.2in /  1024.0hPa Calm     63.3% 0in /  0.0mm 0 W/m2
19:09 46.4 °F /  8 °C 34.9 °F /  1.6 °C 30.2in /  1024.0hPa Calm     64% 0in /  0.0mm 0 W/m2
19:14 46.2 °F /  7.9 °C 35.1 °F /  1.7 °C 30.2in /  1024.0hPa Calm     64.7% 0in /  0.0mm 0 W/m2
19:19 45.5 °F /  7.5 °C 34.2 °F /  1.2 °C 30.2in /  1024.0hPa Calm     64% 0in /  0.0mm 0 W/m2
19:24 45.5 °F /  7.5 °C 33.8 °F /  1 °C 30.2in /  1024.0hPa Calm     63.4% 0in /  0.0mm 0 W/m2
19:29 45.5 °F /  7.5 °C 34.3 °F /  1.3 °C 30.2in /  1024.0hPa Calm     65% 0in /  0.0mm 0 W/m2
19:34 45.5 °F /  7.5 °C 34 °F /  1.1 °C 30.2in /  1024.0hPa Calm     64.1% 0in /  0.0mm 0 W/m2
19:39 45.9 °F /  7.7 °C 34 °F /  1.1 °C 30.2in /  1024.0hPa Calm     63.2% 0in /  0.0mm 0 W/m2
19:44 45.9 °F /  7.7 °C 34.2 °F /  1.2 °C 30.3in /  1024.4hPa Calm     63.5% 0in /  0.0mm 0 W/m2
19:49 45.9 °F /  7.7 °C 34.2 °F /  1.2 °C 30.3in /  1024.4hPa Calm     63% 0in /  0.0mm 0 W/m2
19:54 46 °F /  7.8 °C 34.3 °F /  1.3 °C 30.3in /  1024.4hPa Calm     63.4% 0in /  0.0mm 0 W/m2
19:59 46 °F /  7.8 °C 34.7 °F /  1.5 °C 30.3in /  1024.4hPa Calm     64.7% 0in /  0.0mm 0 W/m2
20:04 46 °F /  7.8 °C 34.7 °F /  1.5 °C 30.3in /  1024.4hPa Calm     64.3% 0in /  0.0mm 0 W/m2
20:09 46 °F /  7.8 °C 34.9 °F /  1.6 °C 30.3in /  1024.4hPa Calm     65% 0in /  0.0mm 0 W/m2
20:14 45.9 °F /  7.7 °C 34.9 °F /  1.6 °C 30.3in /  1024.4hPa Calm     65.4% 0in /  0.0mm 0 W/m2
20:19 45.7 °F /  7.6 °C 34.5 °F /  1.4 °C 30.3in /  1024.4hPa Calm     65% 0in /  0.0mm 0 W/m2
20:24 45.5 °F /  7.5 °C 34.5 °F /  1.4 °C 30.3in /  1025.1hPa Calm     65.3% 0in /  0.0mm 0 W/m2
20:29 45.5 °F /  7.5 °C 34.3 °F /  1.3 °C 30.3in /  1025.1hPa Calm     65% 0in /  0.0mm 0 W/m2
20:34 45.5 °F /  7.5 °C 34.3 °F /  1.3 °C 30.3in /  1025.1hPa Calm     65% 0in /  0.0mm 0 W/m2
20:39 45.7 °F /  7.6 °C 34.5 °F /  1.4 °C 30.3in /  1024.7hPa Calm     65% 0in /  0.0mm 0 W/m2
20:44 45.7 °F /  7.6 °C 34.5 °F /  1.4 °C 30.3in /  1024.7hPa Calm     65% 0in /  0.0mm 0 W/m2
20:49 45.7 °F /  7.6 °C 34.3 °F /  1.3 °C 30.3in /  1025.1hPa Calm     64.2% 0in /  0.0mm 0 W/m2
20:54 45.7 °F /  7.6 °C 34.3 °F /  1.3 °C 30.3in /  1024.7hPa Calm     64.5% 0in /  0.0mm 0 W/m2
20:59 45.5 °F /  7.5 °C 34.9 °F /  1.6 °C 30.3in /  1024.7hPa Calm     66% 0in /  0.0mm 0 W/m2
21:04 45.5 °F /  7.5 °C 34.9 °F /  1.6 °C 30.3in /  1024.7hPa Calm     66% 0in /  0.0mm 0 W/m2
21:09 45.5 °F /  7.5 °C 35.1 °F /  1.7 °C 30.3in /  1024.7hPa Calm     66.3% 0in /  0.0mm 0 W/m2
21:14 45.5 °F /  7.5 °C 34.9 °F /  1.6 °C 30.3in /  1024.7hPa Calm     66.2% 0in /  0.0mm 0 W/m2
21:19 45.5 °F /  7.5 °C 35.1 °F /  1.7 °C 30.3in /  1024.7hPa Calm     66.4% 0in /  0.0mm 0 W/m2
21:24 45.5 °F /  7.5 °C 35.4 °F /  1.9 °C 30.3in /  1025.1hPa Calm     67.4% 0in /  0.0mm 0 W/m2
21:29 45.3 °F /  7.4 °C 35.6 °F /  2 °C 30.3in /  1024.7hPa Calm     68.3% 0in /  0.0mm 0 W/m2
21:34 45.1 °F /  7.3 °C 35.8 °F /  2.1 °C 30.3in /  1024.7hPa Calm     69% 0in /  0.0mm 0 W/m2
21:39 44.8 °F /  7.1 °C 35.4 °F /  1.9 °C 30.3in /  1024.7hPa Calm     69.3% 0in /  0.0mm 0 W/m2
21:44 44.6 °F /  7 °C 35.2 °F /  1.8 °C 30.3in /  1025.1hPa Calm     69.6% 0in /  0.0mm 0 W/m2
21:49 44.6 °F /  7 °C 35.8 °F /  2.1 °C 30.3in /  1025.1hPa Calm     70.9% 0in /  0.0mm 0 W/m2
21:54 44.4 °F /  6.9 °C 36 °F /  2.2 °C 30.3in /  1025.1hPa Calm     72.3% 0in /  0.0mm 0 W/m2
21:59 43.5 °F /  6.4 °C 35.4 °F /  1.9 °C 30.3in /  1025.1hPa Calm     73% 0in /  0.0mm 0 W/m2
22:04 43.2 °F /  6.2 °C 35.1 °F /  1.7 °C 30.3in /  1024.7hPa Calm     73% 0in /  0.0mm 0 W/m2
22:09 43.3 °F /  6.3 °C 34.3 °F /  1.3 °C 30.3in /  1024.7hPa Calm     70.3% 0in /  0.0mm 0 W/m2
22:14 43.5 °F /  6.4 °C 35.2 °F /  1.8 °C 30.3in /  1024.7hPa Calm     72.6% 0in /  0.0mm 0 W/m2
22:19 43 °F /  6.1 °C 35.4 °F /  1.9 °C 30.3in /  1024.7hPa Calm     74.1% 0in /  0.0mm 0 W/m2
22:24 42.6 °F /  5.9 °C 35.2 °F /  1.8 °C 30.3in /  1024.7hPa Calm     75% 0in /  0.0mm 0 W/m2
22:29 42.6 °F /  5.9 °C 35.1 °F /  1.7 °C 30.3in /  1024.7hPa Calm     74.7% 0in /  0.0mm 0 W/m2
22:34 42.6 °F /  5.9 °C 35.1 °F /  1.7 °C 30.3in /  1024.7hPa Calm     74.2% 0in /  0.0mm 0 W/m2
22:39 43.2 °F /  6.2 °C 35.4 °F /  1.9 °C 30.3in /  1024.7hPa Calm     74% 0in /  0.0mm 0 W/m2
22:44 43.5 °F /  6.4 °C 36 °F /  2.2 °C 30.3in /  1024.4hPa Calm     74.7% 0in /  0.0mm 0 W/m2
22:49 43.3 °F /  6.3 °C 36 °F /  2.2 °C 30.3in /  1024.4hPa Calm     75.1% 0in /  0.0mm 0 W/m2
22:54 43.3 °F /  6.3 °C 36.1 °F /  2.3 °C 30.3in /  1024.4hPa Calm     75.3% 0in /  0.0mm 0 W/m2
22:59 43.2 °F /  6.2 °C 35.8 °F /  2.1 °C 30.3in /  1024.7hPa Calm     75% 0in /  0.0mm 0 W/m2
23:04 43 °F /  6.1 °C 35.6 °F /  2 °C 30.3in /  1024.4hPa Calm     74.9% 0in /  0.0mm 0 W/m2
23:09 43 °F /  6.1 °C 35.1 °F /  1.7 °C 30.3in /  1024.4hPa Calm     73.8% 0in /  0.0mm 0 W/m2
23:14 43.2 °F /  6.2 °C 35.2 °F /  1.8 °C 30.3in /  1024.4hPa Calm     73.9% 0in /  0.0mm 0 W/m2
23:19 43.3 °F /  6.3 °C 35.6 °F /  2 °C 30.3in /  1024.4hPa Calm     74% 0in /  0.0mm 0 W/m2
23:24 43.3 °F /  6.3 °C 35.6 °F /  2 °C 30.3in /  1024.7hPa Calm     74% 0in /  0.0mm 0 W/m2
23:29 43.3 °F /  6.3 °C 35.6 °F /  2 °C 30.3in /  1024.7hPa Calm     74% 0in /  0.0mm 0 W/m2
23:34 43.3 °F /  6.3 °C 35.8 °F /  2.1 °C 30.3in /  1025.1hPa Calm     74.6% 0in /  0.0mm 0 W/m2
23:39 43.3 °F /  6.3 °C 35.8 °F /  2.1 °C 30.3in /  1025.1hPa Calm     74.7% 0in /  0.0mm 0 W/m2
23:44 43.3 °F /  6.3 °C 35.8 °F /  2.1 °C 30.3in /  1025.1hPa Calm     74.7% 0in /  0.0mm 0 W/m2
23:49 43.2 °F /  6.2 °C 36 °F /  2.2 °C 30.3in /  1025.1hPa Calm     75.8% 0in /  0.0mm 0 W/m2
23:54 43.2 °F /  6.2 °C 35.8 °F /  2.1 °C 30.3in /  1024.7hPa Calm     75% 0in /  0.0mm 0 W/m2
23:59 43.2 °F /  6.2 °C 36 °F /  2.2 °C 30.3in /  1025.1hPa Calm     75.6% 0in /  0.0mm 0 W/m2
Juneau County Weather
Compliments of Weather Underground - 2 mb